createdAt,value
2022-11-16T00:01:30.650Z,9.96
2022-11-16T00:04:04.541Z,9.96
2022-11-16T00:06:36.313Z,10.00
2022-11-16T00:09:23.520Z,10.06
2022-11-16T00:11:57.416Z,10.09
2022-11-16T00:14:31.364Z,10.03
2022-11-16T00:17:04.065Z,9.98
2022-11-16T00:19:35.878Z,9.94
2022-11-16T00:22:07.533Z,9.93
2022-11-16T00:24:39.145Z,9.94
2022-11-16T00:27:10.687Z,9.95
2022-11-16T00:29:42.295Z,9.94
2022-11-16T00:32:13.939Z,9.95
2022-11-16T00:34:45.517Z,9.97
2022-11-16T00:37:17.046Z,10.01
2022-11-16T00:39:48.603Z,10.05
2022-11-16T00:42:20.183Z,10.10
2022-11-16T00:44:51.707Z,10.16
2022-11-16T00:47:23.483Z,10.20
2022-11-16T00:49:55.048Z,10.24
2022-11-16T00:52:26.705Z,10.26
2022-11-16T00:54:58.241Z,10.22
2022-11-16T00:57:30.010Z,10.19
2022-11-16T01:00:01.598Z,10.17
2022-11-16T01:02:33.368Z,10.16
2022-11-16T01:05:05.337Z,10.13
2022-11-16T01:07:39.660Z,10.12
2022-11-16T01:10:16.511Z,10.14
2022-11-16T01:12:49.661Z,10.15
2022-11-16T01:15:23.475Z,10.19
2022-11-16T01:17:56.313Z,10.26
2022-11-16T01:20:30.429Z,10.30
2022-11-16T01:23:02.141Z,10.31
2022-11-16T01:25:33.905Z,10.32
2022-11-16T01:28:05.681Z,10.34
2022-11-16T01:30:37.338Z,10.33
2022-11-16T01:33:08.881Z,10.29
2022-11-16T01:35:43.748Z,10.27
2022-11-16T01:38:15.478Z,10.24
2022-11-16T01:40:47.244Z,10.22
2022-11-16T01:43:21.522Z,10.18
2022-11-16T01:45:53.449Z,10.16
2022-11-16T01:48:30.437Z,10.17
2022-11-16T01:51:02.668Z,10.18
2022-11-16T01:53:34.733Z,10.21
2022-11-16T01:56:08.373Z,10.26
2022-11-16T01:58:40.200Z,10.29
2022-11-16T02:01:11.776Z,10.28
2022-11-16T02:03:44.026Z,10.29
2022-11-16T02:06:47.998Z,10.32
2022-11-16T02:09:57.402Z,10.33
2022-11-16T02:12:46.633Z,10.31
2022-11-16T02:15:26.396Z,10.28
2022-11-16T02:18:12.886Z,10.24
2022-11-16T02:20:55.908Z,10.21
2022-11-16T02:23:50.727Z,10.18
2022-11-16T02:26:40.508Z,10.15
2022-11-16T02:29:22.554Z,10.17
2022-11-16T02:32:01.523Z,10.22
2022-11-16T02:34:39.231Z,10.26
2022-11-16T02:37:15.977Z,10.27
2022-11-16T02:39:50.842Z,10.31
2022-11-16T02:42:29.850Z,10.31
2022-11-16T02:45:04.181Z,10.34
2022-11-16T02:47:38.193Z,10.33
2022-11-16T02:50:15.722Z,10.29
2022-11-16T02:52:47.549Z,10.29
2022-11-16T02:55:19.384Z,10.24
2022-11-16T02:57:56.703Z,10.19
2022-11-16T03:00:31.619Z,10.17
2022-11-16T03:03:10.053Z,10.18
2022-11-16T03:05:45.295Z,10.21
2022-11-16T03:08:23.682Z,10.26
2022-11-16T03:11:17.478Z,10.29
2022-11-16T03:13:49.962Z,10.25
2022-11-16T03:16:27.567Z,10.19
2022-11-16T03:19:01.474Z,10.15
2022-11-16T03:21:38.615Z,10.15
2022-11-16T03:24:11.564Z,10.17
2022-11-16T03:26:55.933Z,10.17
2022-11-16T03:29:31.670Z,10.16
2022-11-16T03:32:12.888Z,10.14
2022-11-16T03:34:49.533Z,10.11
2022-11-16T03:37:23.083Z,10.09
2022-11-16T03:39:56.357Z,10.07
2022-11-16T03:42:29.399Z,10.08
2022-11-16T03:45:01.685Z,10.08
2022-11-16T03:47:33.990Z,10.11
2022-11-16T03:50:06.731Z,10.12
2022-11-16T03:52:38.965Z,10.09
2022-11-16T03:55:11.674Z,10.07
2022-11-16T03:57:43.217Z,10.06
2022-11-16T04:00:15.784Z,10.05
2022-11-16T04:02:47.297Z,10.02
2022-11-16T04:05:36.923Z,9.96
2022-11-16T04:08:30.571Z,9.89
2022-11-16T04:11:19.771Z,9.82
2022-11-16T04:14:10.172Z,9.82
2022-11-16T04:16:59.109Z,9.85
2022-11-16T04:19:57.932Z,9.89
2022-11-16T04:22:51.735Z,9.92
2022-11-16T04:25:28.351Z,9.93
2022-11-16T04:28:16.670Z,9.85
2022-11-16T04:31:08.785Z,9.77
2022-11-16T04:33:58.719Z,9.75
2022-11-16T04:36:48.114Z,9.71
2022-11-16T04:39:19.609Z,9.69
2022-11-16T04:42:08.994Z,9.67
2022-11-16T04:45:09.839Z,9.67
2022-11-16T04:47:41.336Z,9.71
2022-11-16T04:50:13.430Z,9.77
2022-11-16T04:52:44.962Z,9.80
2022-11-16T04:55:16.541Z,9.86
2022-11-16T04:57:48.050Z,9.86
2022-11-16T05:00:20.970Z,9.87
2022-11-16T05:02:56.853Z,9.88
2022-11-16T05:05:31.601Z,9.85
2022-11-16T05:08:03.286Z,9.80
2022-11-16T05:10:35.033Z,9.76
2022-11-16T05:13:06.557Z,9.73
2022-11-16T05:15:38.082Z,9.70
2022-11-16T05:18:09.674Z,9.72
2022-11-16T05:20:59.069Z,9.76
2022-11-16T05:23:48.326Z,9.85
2022-11-16T05:26:19.824Z,9.97
2022-11-16T05:28:51.343Z,10.06
2022-11-16T05:31:22.949Z,10.13
2022-11-16T05:33:54.575Z,10.14
2022-11-16T05:36:26.148Z,10.10
2022-11-16T05:38:57.699Z,10.07
2022-11-16T05:41:29.265Z,10.02
2022-11-16T05:44:00.861Z,9.97
2022-11-16T05:46:32.525Z,9.89
2022-11-16T05:49:04.140Z,9.79
2022-11-16T05:51:35.796Z,9.75
2022-11-16T05:54:08.303Z,9.76
2022-11-16T05:56:39.945Z,9.75
2022-11-16T05:59:16.450Z,9.80
2022-11-16T06:01:49.081Z,9.83
2022-11-16T06:04:24.817Z,9.83
2022-11-16T06:06:56.749Z,9.81
2022-11-16T06:09:28.377Z,9.83
2022-11-16T06:12:00.046Z,9.84
2022-11-16T06:14:31.590Z,9.87
2022-11-16T06:17:03.105Z,9.89
2022-11-16T06:19:35.606Z,9.92
2022-11-16T06:22:07.131Z,9.99
2022-11-16T06:24:38.762Z,10.06
2022-11-16T06:27:10.334Z,10.16
2022-11-16T06:29:41.853Z,10.22
2022-11-16T06:32:14.693Z,10.29
2022-11-16T06:34:46.225Z,10.32
2022-11-16T06:37:18.896Z,10.34
2022-11-16T06:39:50.390Z,10.34
2022-11-16T06:42:22.134Z,10.32
2022-11-16T06:44:53.825Z,10.30
2022-11-16T06:47:25.371Z,10.26
2022-11-16T06:49:56.885Z,10.18
2022-11-16T06:52:28.553Z,10.09
2022-11-16T06:55:00.074Z,10.04
2022-11-16T06:57:31.642Z,10.01
2022-11-16T07:00:03.843Z,9.95
2022-11-16T07:02:37.166Z,9.93
2022-11-16T07:05:10.332Z,9.97
2022-11-16T07:07:41.834Z,10.01
2022-11-16T07:10:14.342Z,10.02
2022-11-16T07:12:45.867Z,9.98
2022-11-16T07:15:17.783Z,9.96
2022-11-16T07:17:49.359Z,9.96
2022-11-16T07:20:21.186Z,9.92
2022-11-16T07:22:52.855Z,9.91
2022-11-16T07:25:24.345Z,9.90
2022-11-16T07:27:55.970Z,9.93
2022-11-16T07:30:27.746Z,9.97
2022-11-16T07:33:02.629Z,9.99
2022-11-16T07:35:34.149Z,10.02
2022-11-16T07:38:05.673Z,10.03
2022-11-16T07:40:37.403Z,10.06
2022-11-16T07:43:08.909Z,10.06
2022-11-16T07:45:40.499Z,10.07
2022-11-16T07:48:12.034Z,10.05
2022-11-16T07:50:43.549Z,10.04
2022-11-16T07:53:15.410Z,10.03
2022-11-16T07:55:52.207Z,9.99
2022-11-16T07:58:24.160Z,9.94
2022-11-16T08:00:55.728Z,9.93
2022-11-16T08:03:27.238Z,9.93
2022-11-16T08:06:03.804Z,9.90
2022-11-16T08:08:35.770Z,9.89
2022-11-16T08:11:09.810Z,9.87
2022-11-16T08:13:42.522Z,9.83
2022-11-16T08:16:16.501Z,9.77
2022-11-16T08:18:49.605Z,9.79
2022-11-16T08:21:21.680Z,9.80
2022-11-16T08:23:58.125Z,9.82
2022-11-16T08:26:30.371Z,9.80
2022-11-16T08:29:01.930Z,9.81
2022-11-16T08:31:33.578Z,9.80
2022-11-16T08:34:05.234Z,9.82
2022-11-16T08:36:37.288Z,9.84
2022-11-16T08:39:08.887Z,9.82
2022-11-16T08:41:42.212Z,9.84
2022-11-16T08:44:15.481Z,9.87
2022-11-16T08:46:46.987Z,9.87
2022-11-16T08:49:18.524Z,9.84
2022-11-16T08:51:50.170Z,9.87
2022-11-16T08:54:22.227Z,9.86
2022-11-16T08:56:53.986Z,9.87
2022-11-16T08:59:25.602Z,9.91
2022-11-16T09:01:57.181Z,9.97
2022-11-16T09:04:32.718Z,9.96
2022-11-16T09:07:07.423Z,9.93
2022-11-16T09:09:39.042Z,9.91
2022-11-16T09:12:10.699Z,9.86
2022-11-16T09:14:42.422Z,9.83
2022-11-16T09:17:16.554Z,9.88
2022-11-16T09:19:51.781Z,9.89
2022-11-16T09:22:23.443Z,9.88
2022-11-16T09:24:54.945Z,9.91
2022-11-16T09:27:26.510Z,10.02
2022-11-16T09:29:58.269Z,10.04
2022-11-16T09:32:29.810Z,10.04
2022-11-16T09:35:01.692Z,10.03
2022-11-16T09:37:33.233Z,9.98
2022-11-16T09:40:05.320Z,9.93
2022-11-16T09:42:45.922Z,9.92
2022-11-16T09:45:25.999Z,9.94
2022-11-16T09:48:02.414Z,10.00
2022-11-16T09:50:41.045Z,10.04
2022-11-16T09:53:25.983Z,10.03
2022-11-16T09:56:00.771Z,10.00
2022-11-16T09:58:39.037Z,9.95
2022-11-16T10:01:23.633Z,9.91
2022-11-16T10:04:00.086Z,9.88
2022-11-16T10:06:42.861Z,9.86
2022-11-16T10:09:14.920Z,9.84
2022-11-16T10:12:06.604Z,9.81
2022-11-16T10:15:04.808Z,9.80
2022-11-16T10:17:48.620Z,9.85
2022-11-16T10:20:44.913Z,9.93
2022-11-16T10:23:26.209Z,9.96
2022-11-16T10:26:05.693Z,10.01
2022-11-16T10:29:05.666Z,10.04
2022-11-16T10:31:56.307Z,10.03
2022-11-16T10:34:32.943Z,9.97
2022-11-16T10:37:08.575Z,9.91
2022-11-16T10:39:41.260Z,9.85
2022-11-16T10:42:19.184Z,9.80
2022-11-16T10:44:58.373Z,9.80
2022-11-16T10:47:38.569Z,9.83
2022-11-16T10:50:27.111Z,9.85
2022-11-16T10:52:58.795Z,9.87
2022-11-16T10:55:30.553Z,9.90
2022-11-16T10:58:04.544Z,9.93
2022-11-16T11:00:46.143Z,9.90
2022-11-16T11:03:30.212Z,9.91
2022-11-16T11:06:00.381Z,9.91
2022-11-16T11:08:34.270Z,9.90
2022-11-16T11:11:21.507Z,9.85
2022-11-16T11:14:11.274Z,9.80
2022-11-16T11:16:43.548Z,9.77
2022-11-16T11:19:27.416Z,9.77
2022-11-16T11:22:02.667Z,9.76
2022-11-16T11:24:44.437Z,9.80
2022-11-16T11:27:22.361Z,9.84
2022-11-16T11:29:58.701Z,9.86
2022-11-16T11:32:35.865Z,9.87
2022-11-16T11:35:22.954Z,9.88
2022-11-16T11:37:57.517Z,9.86
2022-11-16T11:40:30.617Z,9.79
2022-11-16T11:43:03.518Z,9.70
2022-11-16T11:45:46.183Z,9.60
2022-11-16T11:48:31.402Z,9.51
2022-11-16T11:51:12.275Z,9.47
2022-11-16T11:53:52.758Z,9.43
2022-11-16T11:56:25.855Z,9.43
2022-11-16T11:58:58.249Z,9.42
2022-11-16T12:01:51.288Z,9.43
2022-11-16T12:05:02.662Z,9.38
2022-11-16T12:07:52.762Z,9.34
2022-11-16T12:10:36.037Z,9.28
2022-11-16T12:13:27.914Z,9.20
2022-11-16T12:16:10.461Z,9.17
2022-11-16T12:18:57.034Z,9.12
2022-11-16T12:21:42.234Z,9.08
2022-11-16T12:24:25.347Z,9.08
2022-11-16T12:27:10.731Z,9.09
2022-11-16T12:29:54.438Z,9.10
2022-11-16T12:32:40.871Z,9.14
2022-11-16T12:35:29.493Z,9.16
2022-11-16T12:38:12.056Z,9.11
2022-11-16T12:41:01.395Z,9.09
2022-11-16T12:43:44.197Z,9.05
2022-11-16T12:46:24.476Z,8.99
2022-11-16T12:49:27.314Z,8.90
2022-11-16T12:52:11.274Z,8.86
2022-11-16T12:55:23.999Z,8.86
2022-11-16T12:57:59.579Z,8.87
2022-11-16T13:00:39.584Z,8.84
2022-11-16T13:03:20.109Z,8.84
2022-11-16T13:05:58.287Z,8.84
2022-11-16T13:08:49.507Z,8.85
2022-11-16T13:11:24.543Z,8.86
2022-11-16T13:14:01.033Z,8.84
2022-11-16T13:16:33.496Z,8.80
2022-11-16T13:19:08.453Z,8.76
2022-11-16T13:21:47.648Z,8.74
2022-11-16T13:24:39.957Z,8.76
2022-11-16T13:27:27.351Z,8.78
2022-11-16T13:30:06.632Z,8.80
2022-11-16T13:32:50.470Z,8.83
2022-11-16T13:35:23.136Z,8.87
2022-11-16T13:37:54.789Z,8.87
2022-11-16T13:40:29.165Z,8.86
2022-11-16T13:43:16.866Z,8.83
2022-11-16T13:45:57.083Z,8.82
2022-11-16T13:48:34.486Z,8.79
2022-11-16T13:51:09.794Z,8.72
2022-11-16T13:56:52.504Z,8.64
2022-11-16T13:59:29.940Z,8.67
2022-11-16T14:02:04.084Z,8.72
2022-11-16T14:04:57.483Z,8.71
2022-11-16T14:07:44.921Z,8.56
2022-11-16T14:10:53.798Z,8.43
2022-11-16T14:13:44.202Z,8.42
2022-11-16T14:16:43.235Z,8.44
2022-11-16T14:19:47.556Z,8.41
2022-11-16T14:22:34.816Z,8.36
2022-11-16T14:25:17.336Z,8.31
2022-11-16T14:27:56.573Z,8.27
2022-11-16T14:30:32.304Z,8.28
2022-11-16T14:33:04.211Z,8.31
2022-11-16T14:35:38.066Z,8.35
2022-11-16T14:38:21.779Z,8.42
2022-11-16T14:40:59.443Z,8.47
2022-11-16T14:43:37.017Z,8.43
2022-11-16T14:46:15.823Z,8.41
2022-11-16T14:48:48.484Z,8.33
2022-11-16T14:51:25.713Z,8.31
2022-11-16T14:54:01.929Z,8.25
2022-11-16T14:56:33.493Z,8.21
2022-11-16T14:59:05.463Z,8.15
2022-11-16T15:01:40.406Z,8.08
2022-11-16T15:04:13.260Z,8.10
2022-11-16T15:06:49.065Z,8.13
2022-11-16T15:09:27.229Z,8.13
2022-11-16T15:12:17.982Z,8.16
2022-11-16T15:14:53.713Z,8.14
2022-11-16T15:17:31.759Z,8.14
2022-11-16T15:20:16.026Z,8.15
2022-11-16T15:22:51.850Z,8.14
2022-11-16T15:25:29.322Z,8.09
2022-11-16T15:28:03.617Z,7.97
2022-11-16T15:30:37.510Z,7.94
2022-11-16T15:33:17.572Z,7.95
2022-11-16T15:35:49.361Z,7.98
2022-11-16T15:38:24.246Z,7.94
2022-11-16T15:40:58.582Z,7.85
2022-11-16T15:43:35.847Z,7.83
2022-11-16T15:46:10.702Z,7.87
2022-11-16T15:48:43.035Z,7.88
2022-11-16T15:51:20.072Z,7.89
2022-11-16T15:53:53.191Z,7.90
2022-11-16T15:56:33.755Z,7.90
2022-11-16T15:59:13.824Z,7.90
2022-11-16T16:01:46.395Z,7.90
2022-11-16T16:04:20.493Z,7.92
2022-11-16T16:06:54.652Z,7.95
2022-11-16T16:09:29.585Z,7.99
2022-11-16T16:12:19.500Z,8.03
2022-11-16T16:14:53.433Z,8.09
2022-11-16T16:17:27.369Z,8.15
2022-11-16T16:20:01.332Z,8.19
2022-11-16T16:22:35.145Z,8.20
2022-11-16T16:25:26.988Z,8.16
2022-11-16T16:27:58.864Z,8.05
2022-11-16T16:30:33.091Z,7.95
2022-11-16T16:33:04.782Z,7.91
2022-11-16T16:35:36.444Z,7.85
2022-11-16T16:38:15.334Z,7.75
2022-11-16T16:40:46.920Z,7.75
2022-11-16T16:43:18.487Z,7.76
2022-11-16T16:45:50.510Z,7.81
2022-11-16T16:48:22.037Z,7.82
2022-11-16T16:50:53.540Z,7.80
2022-11-16T16:53:25.396Z,7.78
2022-11-16T16:55:57.045Z,7.75
2022-11-16T16:58:28.557Z,7.77
2022-11-16T17:01:04.600Z,7.75
2022-11-16T17:03:36.460Z,7.70
2022-11-16T17:06:08.947Z,7.66
2022-11-16T17:08:40.838Z,7.63
2022-11-16T17:11:12.425Z,7.64
2022-11-16T17:13:44.423Z,7.62
2022-11-16T17:16:16.784Z,7.62
2022-11-16T17:18:48.628Z,7.67
2022-11-16T17:21:20.218Z,7.71
2022-11-16T17:23:51.826Z,7.76
2022-11-16T17:26:24.841Z,7.77
2022-11-16T17:28:58.475Z,7.75
2022-11-16T17:31:28.990Z,7.72
2022-11-16T17:34:00.589Z,7.69
2022-11-16T17:36:32.203Z,7.59
2022-11-16T17:39:04.003Z,7.47
2022-11-16T17:41:35.551Z,7.45
2022-11-16T17:44:08.647Z,7.40
2022-11-16T17:46:47.108Z,7.42
2022-11-16T17:49:18.666Z,7.48
2022-11-16T17:51:50.209Z,7.51
2022-11-16T17:54:21.778Z,7.49
2022-11-16T17:56:53.310Z,7.46
2022-11-16T17:59:29.397Z,7.40
2022-11-16T18:02:02.203Z,7.31
2022-11-16T18:04:33.788Z,7.27
2022-11-16T18:07:05.478Z,7.25
2022-11-16T18:09:37.186Z,7.19
2022-11-16T18:12:09.069Z,7.12
2022-11-16T18:14:42.376Z,7.09
2022-11-16T18:17:12.630Z,7.07
2022-11-16T18:19:44.733Z,7.10
2022-11-16T18:22:16.246Z,7.11
2022-11-16T18:24:47.758Z,7.09
2022-11-16T18:27:19.345Z,7.08
2022-11-16T18:29:50.847Z,7.08
2022-11-16T18:32:22.375Z,7.05
2022-11-16T18:34:54.179Z,6.97
2022-11-16T18:37:25.934Z,6.90
2022-11-16T18:39:57.498Z,6.83
2022-11-16T18:42:29.047Z,6.72
2022-11-16T18:45:00.555Z,6.67
2022-11-16T18:47:32.079Z,6.64
2022-11-16T18:50:03.673Z,6.62
2022-11-16T18:52:35.208Z,6.59
2022-11-16T18:55:09.132Z,6.60
2022-11-16T18:57:40.611Z,6.55
2022-11-16T19:00:16.122Z,6.49
2022-11-16T19:02:47.632Z,6.47
2022-11-16T19:05:19.165Z,6.41
2022-11-16T19:07:50.699Z,6.37
2022-11-16T19:10:22.177Z,6.30
2022-11-16T19:12:53.679Z,6.23
2022-11-16T19:15:26.406Z,6.13
2022-11-16T19:18:19.895Z,6.06
2022-11-16T19:20:49.402Z,6.05
2022-11-16T19:23:20.919Z,6.07
2022-11-16T19:26:04.896Z,6.07
2022-11-16T19:28:37.840Z,5.92
2022-11-16T19:31:14.474Z,6.01
2022-11-16T19:33:46.625Z,5.97
2022-11-16T19:36:19.858Z,5.86
2022-11-16T19:38:51.773Z,5.75
2022-11-16T19:41:24.629Z,5.66
2022-11-16T19:43:59.673Z,5.62
2022-11-16T19:46:33.188Z,5.60
2022-11-16T19:49:05.460Z,5.57
2022-11-16T19:51:38.418Z,5.56
2022-11-16T19:54:13.850Z,5.53
2022-11-16T19:56:49.308Z,5.51
2022-11-16T19:59:23.554Z,5.49
2022-11-16T20:01:55.077Z,5.43
2022-11-16T20:04:32.042Z,5.40
2022-11-16T20:07:05.577Z,5.29
2022-11-16T20:09:36.042Z,5.20
2022-11-16T20:12:08.150Z,5.23
2022-11-16T20:14:42.370Z,5.21
2022-11-16T20:17:14.125Z,5.22
2022-11-16T20:19:49.775Z,5.23
2022-11-16T20:22:21.282Z,5.25
2022-11-16T20:24:54.770Z,5.21
2022-11-16T20:27:32.320Z,5.20
2022-11-16T20:30:09.347Z,5.24
2022-11-16T20:32:41.359Z,5.24
2022-11-16T20:35:18.824Z,5.18
2022-11-16T20:37:50.789Z,5.12
2022-11-16T20:40:22.477Z,5.02
2022-11-16T20:42:59.050Z,4.96
2022-11-16T20:45:33.011Z,4.93
2022-11-16T20:48:05.296Z,4.91
2022-11-16T20:50:36.853Z,4.94
2022-11-16T20:53:08.363Z,4.99
2022-11-16T20:55:39.871Z,5.04
2022-11-16T20:58:11.416Z,5.06
2022-11-16T21:00:43.096Z,5.01
2022-11-16T21:03:14.766Z,5.00
2022-11-16T21:05:50.722Z,5.01
2022-11-16T21:08:22.478Z,4.97
2022-11-16T21:10:54.653Z,4.92
2022-11-16T21:13:44.026Z,4.87
2022-11-16T21:16:17.461Z,4.83
2022-11-16T21:18:48.974Z,4.79
2022-11-16T21:21:20.473Z,4.74
2022-11-16T21:23:53.254Z,4.71
2022-11-16T21:26:26.448Z,4.69
2022-11-16T21:28:58.894Z,4.69
2022-11-16T21:31:32.167Z,4.63
2022-11-16T21:34:03.724Z,4.57
2022-11-16T21:36:36.101Z,4.55
2022-11-16T21:39:08.116Z,4.46
2022-11-16T21:41:39.646Z,4.41
2022-11-16T21:44:11.147Z,4.42
2022-11-16T21:46:42.677Z,4.39
2022-11-16T21:49:14.215Z,4.40
2022-11-16T21:51:45.702Z,4.43
2022-11-16T21:54:17.197Z,4.46
2022-11-16T21:56:48.910Z,4.48
2022-11-16T21:59:20.565Z,4.56
2022-11-16T22:02:01.486Z,4.62
2022-11-16T22:04:50.804Z,4.63
2022-11-16T22:07:36.928Z,4.62
2022-11-16T22:10:11.159Z,4.61
2022-11-16T22:12:42.789Z,4.61
2022-11-16T22:15:14.889Z,4.57
2022-11-16T22:17:46.856Z,4.57
2022-11-16T22:20:19.637Z,4.56
2022-11-16T22:22:51.356Z,4.54
2022-11-16T22:25:22.999Z,4.51
2022-11-16T22:30:51.459Z,4.45
2022-11-16T22:33:23.767Z,4.44
2022-11-16T22:35:55.629Z,4.46
2022-11-16T22:38:27.617Z,4.48
2022-11-16T22:40:59.700Z,4.49
2022-11-16T22:43:32.602Z,4.55
2022-11-16T22:46:05.815Z,4.61
2022-11-16T22:48:39.538Z,4.65
2022-11-16T22:51:18.875Z,4.65
2022-11-16T22:53:53.336Z,4.66
2022-11-16T22:56:25.416Z,4.66
2022-11-16T22:58:57.425Z,4.63
2022-11-16T23:01:29.511Z,4.57
2022-11-16T23:04:01.362Z,4.49
2022-11-16T23:06:33.286Z,4.45
2022-11-16T23:09:04.998Z,4.41
2022-11-16T23:11:54.422Z,4.38
2022-11-16T23:14:43.897Z,4.35
2022-11-16T23:17:15.673Z,4.38
2022-11-16T23:20:17.659Z,4.42
2022-11-16T23:23:07.696Z,4.46
2022-11-16T23:25:57.215Z,4.53
2022-11-16T23:28:28.827Z,4.62
2022-11-16T23:31:00.426Z,4.64
2022-11-16T23:33:44.981Z,4.69
2022-11-16T23:36:16.806Z,4.70
2022-11-16T23:38:48.374Z,4.74
2022-11-16T23:41:37.965Z,4.77
2022-11-16T23:44:09.723Z,4.75
2022-11-16T23:46:41.452Z,4.71
2022-11-16T23:49:13.146Z,4.65
2022-11-16T23:51:44.808Z,4.57
2022-11-16T23:54:16.447Z,4.52
2022-11-16T23:56:48.106Z,4.48
2022-11-16T23:59:19.739Z,4.47
